Terminal Aerodrome Forecast
Issued by NWS Shreveport, LA

Home | Current Version | Previous Version | Text Only | Print | Product List | Glossary On
Versions: 1 2 3 4 5 6 7 8 9 10 11 12 13 14 15 16 17
000
FTUS44 KSHV 272000 AAA
TAFTXK
TAF AMD
KTXK 272012Z 2720/2818 36008KT P6SM FEW007 BKN012 OVC020
     FM280200 34010KT 2SM -RA BR OVC004
     FM280900 34009KT 1SM -RA BR OVC004
     FM281500 35004KT 4SM BR OVC015=

USA.gov is the U.S. government's official web portal to all federal, state and local government web resources and services.